sensor_id;sensor_type;location;lat;lon;timestamp;pressure;altitude;pressure_sealevel;temperature;humidity
71956;BME280;59829;50.562;6.258;2022-09-09T00:05:14;95084.28;;;13.57;100.00
71956;BME280;59829;50.562;6.258;2022-09-09T00:15:22;95076.91;;;13.79;100.00
71956;BME280;59829;50.562;6.258;2022-09-09T00:25:37;95083.84;;;13.95;100.00
71956;BME280;59829;50.562;6.258;2022-09-09T00:35:45;95086.25;;;13.96;100.00
71956;BME280;59829;50.562;6.258;2022-09-09T00:56:34;95095.44;;;14.23;100.00
71956;BME280;59829;50.562;6.258;2022-09-09T01:06:45;95102.69;;;14.28;100.00
71956;BME280;59829;50.562;6.258;2022-09-09T01:17:20;95098.63;;;14.33;100.00
71956;BME280;59829;50.562;6.258;2022-09-09T01:27:21;95090.28;;;14.47;100.00
71956;BME280;59829;50.562;6.258;2022-09-09T01:37:22;95091.34;;;14.77;100.00
71956;BME280;59829;50.562;6.258;2022-09-09T01:47:23;95093.66;;;14.48;100.00
71956;BME280;59829;50.562;6.258;2022-09-09T01:57:30;95080.59;;;14.41;100.00
71956;BME280;59829;50.562;6.258;2022-09-09T02:07:42;95071.75;;;14.52;100.00
71956;BME280;59829;50.562;6.258;2022-09-09T02:17:46;95070.47;;;14.48;100.00
71956;BME280;59829;50.562;6.258;2022-09-09T02:27:51;95071.44;;;14.47;100.00
71956;BME280;59829;50.562;6.258;2022-09-09T02:37:56;95066.25;;;14.55;100.00
71956;BME280;59829;50.562;6.258;2022-09-09T02:48:12;95059.78;;;14.67;100.00
71956;BME280;59829;50.562;6.258;2022-09-09T02:58:17;95061.44;;;14.52;100.00
71956;BME280;59829;50.562;6.258;2022-09-09T03:08:19;95073.34;;;14.53;100.00
71956;BME280;59829;50.562;6.258;2022-09-09T03:18:22;95060.81;;;14.58;100.00
71956;BME280;59829;50.562;6.258;2022-09-09T03:28:23;95063.69;;;14.63;100.00
71956;BME280;59829;50.562;6.258;2022-09-09T03:38:31;95051.13;;;14.52;100.00
71956;BME280;59829;50.562;6.258;2022-09-09T03:48:32;95064.31;;;14.57;100.00
71956;BME280;59829;50.562;6.258;2022-09-09T03:58:35;95058.47;;;14.71;100.00
71956;BME280;59829;50.562;6.258;2022-09-09T04:08:37;95045.63;;;14.39;100.00
71956;BME280;59829;50.562;6.258;2022-09-09T04:18:39;95036.66;;;14.27;100.00
71956;BME280;59829;50.562;6.258;2022-09-09T04:28:40;95036.03;;;14.25;100.00
71956;BME280;59829;50.562;6.258;2022-09-09T04:38:42;95037.31;;;14.12;100.00
71956;BME280;59829;50.562;6.258;2022-09-09T04:48:45;95053.41;;;13.98;100.00
71956;BME280;59829;50.562;6.258;2022-09-09T04:58:46;95060.81;;;14.09;100.00
71956;BME280;59829;50.562;6.258;2022-09-09T05:08:48;95054.06;;;14.08;100.00
71956;BME280;59829;50.562;6.258;2022-09-09T05:18:53;95064.38;;;14.25;100.00
71956;BME280;59829;50.562;6.258;2022-09-09T05:28:55;95056.47;;;14.18;100.00
71956;BME280;59829;50.562;6.258;2022-09-09T05:38:58;95055.50;;;13.86;100.00
71956;BME280;59829;50.562;6.258;2022-09-09T05:59:10;95050.19;;;14.04;100.00
71956;BME280;59829;50.562;6.258;2022-09-09T06:09:13;95048.41;;;14.21;100.00
71956;BME280;59829;50.562;6.258;2022-09-09T06:19:16;95049.03;;;14.31;100.00
71956;BME280;59829;50.562;6.258;2022-09-09T06:29:19;95051.00;;;14.45;100.00
71956;BME280;59829;50.562;6.258;2022-09-09T06:39:20;95039.22;;;14.35;99.63
71956;BME280;59829;50.562;6.258;2022-09-09T06:49:22;95035.97;;;14.65;98.07
71956;BME280;59829;50.562;6.258;2022-09-09T06:59:24;95033.69;;;14.70;94.94
71956;BME280;59829;50.562;6.258;2022-09-09T07:09:25;95040.31;;;14.65;96.46
71956;BME280;59829;50.562;6.258;2022-09-09T07:19:28;95052.41;;;14.56;91.51
71956;BME280;59829;50.562;6.258;2022-09-09T07:29:30;95050.41;;;14.74;86.74
71956;BME280;59829;50.562;6.258;2022-09-09T07:39:31;95051.19;;;15.22;87.53
71956;BME280;59829;50.562;6.258;2022-09-09T07:49:33;95065.81;;;14.99;86.24
71956;BME280;59829;50.562;6.258;2022-09-09T07:59:36;95064.19;;;15.37;86.20
71956;BME280;59829;50.562;6.258;2022-09-09T08:09:38;95063.16;;;15.77;84.87
71956;BME280;59829;50.562;6.258;2022-09-09T08:19:39;95072.19;;;15.81;85.04
71956;BME280;59829;50.562;6.258;2022-09-09T08:29:41;95082.63;;;15.65;87.77
71956;BME280;59829;50.562;6.258;2022-09-09T08:39:42;95082.91;;;16.16;86.18
71956;BME280;59829;50.562;6.258;2022-09-09T09:00:15;95094.50;;;16.20;87.72
71956;BME280;59829;50.562;6.258;2022-09-09T09:10:30;95093.91;;;16.10;86.03
71956;BME280;59829;50.562;6.258;2022-09-09T09:20:58;95103.16;;;15.50;86.56
71956;BME280;59829;50.562;6.258;2022-09-09T09:31:10;95125.28;;;15.45;92.28
71956;BME280;59829;50.562;6.258;2022-09-09T09:41:11;95131.59;;;14.87;99.14
71956;BME280;59829;50.562;6.258;2022-09-09T09:51:15;95128.69;;;15.37;99.02
71956;BME280;59829;50.562;6.258;2022-09-09T10:01:32;95108.50;;;16.25;93.75
71956;BME280;59829;50.562;6.258;2022-09-09T10:22:33;95111.22;;;17.65;79.20
71956;BME280;59829;50.562;6.258;2022-09-09T10:32:40;95112.38;;;16.67;78.20
71956;BME280;59829;50.562;6.258;2022-09-09T10:42:43;95101.03;;;16.83;78.00
71956;BME280;59829;50.562;6.258;2022-09-09T11:02:51;95093.47;;;18.68;69.42
71956;BME280;59829;50.562;6.258;2022-09-09T11:12:59;95086.53;;;18.48;69.41
71956;BME280;59829;50.562;6.258;2022-09-09T11:23:13;95098.97;;;18.10;69.40
71956;BME280;59829;50.562;6.258;2022-09-09T11:43:47;95098.78;;;17.90;75.65
71956;BME280;59829;50.562;6.258;2022-09-09T11:53:59;95108.16;;;17.40;75.24
71956;BME280;59829;50.562;6.258;2022-09-09T12:14:21;95098.69;;;19.44;66.88
71956;BME280;59829;50.562;6.258;2022-09-09T12:24:40;95097.81;;;17.40;77.37
71956;BME280;59829;50.562;6.258;2022-09-09T12:45:14;95097.38;;;17.36;80.80
71956;BME280;59829;50.562;6.258;2022-09-09T12:55:27;95095.06;;;17.63;78.13
71956;BME280;59829;50.562;6.258;2022-09-09T13:05:39;95090.44;;;19.82;72.91
71956;BME280;59829;50.562;6.258;2022-09-09T13:15:49;95084.97;;;19.16;73.54
71956;BME280;59829;50.562;6.258;2022-09-09T13:26:00;95072.66;;;19.31;73.87
71956;BME280;59829;50.562;6.258;2022-09-09T13:36:10;95060.09;;;20.62;66.38
71956;BME280;59829;50.562;6.258;2022-09-09T13:56:39;95062.75;;;17.59;78.68
71956;BME280;59829;50.562;6.258;2022-09-09T14:06:42;95057.63;;;17.80;86.05
71956;BME280;59829;50.562;6.258;2022-09-09T14:16:44;95073.09;;;17.37;83.97
71956;BME280;59829;50.562;6.258;2022-09-09T14:26:46;95106.53;;;16.50;93.28
71956;BME280;59829;50.562;6.258;2022-09-09T14:36:49;95118.25;;;15.30;100.00
71956;BME280;59829;50.562;6.258;2022-09-09T14:46:51;95111.72;;;15.43;100.00
71956;BME280;59829;50.562;6.258;2022-09-09T14:56:54;95100.16;;;17.05;100.00
71956;BME280;59829;50.562;6.258;2022-09-09T15:06:58;95093.13;;;17.50;96.15
71956;BME280;59829;50.562;6.258;2022-09-09T15:17:00;95098.91;;;16.72;100.00
71956;BME280;59829;50.562;6.258;2022-09-09T15:27:02;95112.94;;;16.54;100.00
71956;BME280;59829;50.562;6.258;2022-09-09T15:37:04;95125.22;;;15.92;100.00
71956;BME280;59829;50.562;6.258;2022-09-09T15:47:05;95124.97;;;15.48;100.00
71956;BME280;59829;50.562;6.258;2022-09-09T15:57:11;95115.56;;;15.16;100.00
71956;BME280;59829;50.562;6.258;2022-09-09T16:07:14;95112.13;;;15.31;100.00
71956;BME280;59829;50.562;6.258;2022-09-09T16:17:16;95104.78;;;16.95;91.61
71956;BME280;59829;50.562;6.258;2022-09-09T16:27:20;95109.00;;;15.75;100.00
71956;BME280;59829;50.562;6.258;2022-09-09T16:37:24;95105.38;;;19.25;85.60
71956;BME280;59829;50.562;6.258;2022-09-09T16:47:25;95090.66;;;22.34;62.44
71956;BME280;59829;50.562;6.258;2022-09-09T16:57:28;95115.22;;;19.37;75.02
71956;BME280;59829;50.562;6.258;2022-09-09T17:07:31;95130.84;;;17.08;89.55
71956;BME280;59829;50.562;6.258;2022-09-09T17:17:33;95150.94;;;16.08;97.69
71956;BME280;59829;50.562;6.258;2022-09-09T17:27:35;95175.69;;;15.24;100.00
71956;BME280;59829;50.562;6.258;2022-09-09T17:37:37;95178.28;;;15.16;100.00
71956;BME280;59829;50.562;6.258;2022-09-09T17:47:38;95178.84;;;14.71;100.00
71956;BME280;59829;50.562;6.258;2022-09-09T17:57:40;95187.56;;;14.62;100.00
71956;BME280;59829;50.562;6.258;2022-09-09T18:07:43;95183.06;;;14.47;100.00
71956;BME280;59829;50.562;6.258;2022-09-09T18:17:44;95194.28;;;14.38;100.00
71956;BME280;59829;50.562;6.258;2022-09-09T18:27:46;95196.38;;;14.27;100.00
71956;BME280;59829;50.562;6.258;2022-09-09T18:37:48;95205.69;;;14.19;100.00
71956;BME280;59829;50.562;6.258;2022-09-09T18:47:49;95209.25;;;14.18;100.00
71956;BME280;59829;50.562;6.258;2022-09-09T18:57:50;95219.19;;;14.05;100.00
71956;BME280;59829;50.562;6.258;2022-09-09T19:07:50;95218.91;;;14.08;100.00
71956;BME280;59829;50.562;6.258;2022-09-09T19:17:51;95224.97;;;13.99;100.00
71956;BME280;59829;50.562;6.258;2022-09-09T19:27:52;95229.75;;;13.86;100.00
71956;BME280;59829;50.562;6.258;2022-09-09T19:37:56;95246.75;;;13.71;100.00
71956;BME280;59829;50.562;6.258;2022-09-09T19:47:58;95254.38;;;13.80;100.00
71956;BME280;59829;50.562;6.258;2022-09-09T19:58:00;95264.13;;;13.69;100.00
71956;BME280;59829;50.562;6.258;2022-09-09T20:08:02;95277.53;;;13.80;100.00
71956;BME280;59829;50.562;6.258;2022-09-09T20:18:04;95283.88;;;13.94;100.00
71956;BME280;59829;50.562;6.258;2022-09-09T20:28:04;95279.88;;;13.66;100.00
71956;BME280;59829;50.562;6.258;2022-09-09T20:38:05;95278.66;;;13.78;100.00
71956;BME280;59829;50.562;6.258;2022-09-09T20:48:06;95277.63;;;13.71;100.00
71956;BME280;59829;50.562;6.258;2022-09-09T20:58:06;95283.38;;;13.56;100.00
71956;BME280;59829;50.562;6.258;2022-09-09T21:08:07;95266.03;;;13.58;100.00
71956;BME280;59829;50.562;6.258;2022-09-09T21:18:08;95272.75;;;13.94;100.00
71956;BME280;59829;50.562;6.258;2022-09-09T21:28:09;95267.97;;;13.65;100.00
71956;BME280;59829;50.562;6.258;2022-09-09T21:38:12;95265.47;;;13.81;100.00
71956;BME280;59829;50.562;6.258;2022-09-09T21:48:14;95288.63;;;13.81;100.00
71956;BME280;59829;50.562;6.258;2022-09-09T21:58:15;95281.50;;;13.67;100.00
71956;BME280;59829;50.562;6.258;2022-09-09T22:08:17;95274.13;;;13.72;100.00
71956;BME280;59829;50.562;6.258;2022-09-09T22:18:19;95262.19;;;13.71;100.00
71956;BME280;59829;50.562;6.258;2022-09-09T22:28:19;95248.34;;;13.64;100.00
71956;BME280;59829;50.562;6.258;2022-09-09T22:38:21;95259.03;;;13.43;100.00
71956;BME280;59829;50.562;6.258;2022-09-09T22:48:21;95250.34;;;13.18;100.00
71956;BME280;59829;50.562;6.258;2022-09-09T22:58:22;95258.47;;;13.65;100.00
71956;BME280;59829;50.562;6.258;2022-09-09T23:08:29;95258.63;;;13.30;100.00
71956;BME280;59829;50.562;6.258;2022-09-09T23:18:32;95263.47;;;13.15;100.00
71956;BME280;59829;50.562;6.258;2022-09-09T23:28:35;95253.97;;;13.33;100.00
71956;BME280;59829;50.562;6.258;2022-09-09T23:38:36;95262.25;;;13.19;100.00
71956;BME280;59829;50.562;6.258;2022-09-09T23:48:37;95261.22;;;13.12;100.00
71956;BME280;59829;50.562;6.258;2022-09-09T23:58:38;95259.31;;;13.14;100.00
